createdAt,value
2018-04-17T00:00:08.907Z,1014.48
2018-04-17T00:01:08.806Z,1014.45
2018-04-17T00:02:08.717Z,1014.48
2018-04-17T00:03:08.861Z,1014.45
2018-04-17T00:04:08.519Z,1014.44
2018-04-17T00:05:08.415Z,1014.42
2018-04-17T00:06:08.312Z,1014.45
2018-04-17T00:07:08.223Z,1014.46
2018-04-17T00:08:08.119Z,1014.46
2018-04-17T00:09:08.024Z,1014.50
2018-04-17T00:10:07.925Z,1014.52
2018-04-17T00:11:07.834Z,1014.57
2018-04-17T00:12:07.719Z,1014.61
2018-04-17T00:13:07.628Z,1014.61
2018-04-17T00:14:07.523Z,1014.61
2018-04-17T00:15:07.433Z,1014.63
2018-04-17T00:16:07.329Z,1014.65
2018-04-17T00:17:07.225Z,1014.65
2018-04-17T00:18:07.136Z,1014.64
2018-04-17T00:19:07.035Z,1014.66
2018-04-17T00:20:06.928Z,1014.67
2018-04-17T00:21:06.839Z,1014.60
2018-04-17T00:22:06.733Z,1014.61
2018-04-17T00:23:06.893Z,1014.63
2018-04-17T00:24:06.545Z,1014.60
2018-04-17T00:25:06.437Z,1014.68
2018-04-17T00:26:06.350Z,1014.67
2018-04-17T00:27:06.241Z,1014.70
2018-04-17T00:28:06.140Z,1014.71
2018-04-17T00:29:06.050Z,1014.70
2018-04-17T00:30:05.944Z,1014.75
2018-04-17T00:31:05.841Z,1014.73
2018-04-17T00:32:05.750Z,1014.76
2018-04-17T00:33:05.659Z,1014.76
2018-04-17T00:34:05.544Z,1014.80
2018-04-17T00:35:05.453Z,1014.81
2018-04-17T00:36:05.351Z,1014.86
2018-04-17T00:37:05.262Z,1014.87
2018-04-17T00:38:05.155Z,1014.87
2018-04-17T00:39:05.050Z,1014.87
2018-04-17T00:40:04.962Z,1014.88
2018-04-17T00:41:04.860Z,1014.88
2018-04-17T00:42:04.755Z,1014.90
2018-04-17T00:43:04.913Z,1014.89
2018-04-17T00:44:04.560Z,1014.95
2018-04-17T00:45:04.493Z,1015.04
2018-04-17T00:46:04.367Z,1015.09
2018-04-17T00:47:04.264Z,1015.16
2018-04-17T00:48:04.160Z,1015.16
2018-04-17T00:49:04.070Z,1015.18
2018-04-17T00:50:03.966Z,1015.19
2018-04-17T00:51:03.867Z,1015.24
2018-04-17T00:52:03.773Z,1015.22
2018-04-17T00:53:03.670Z,1015.22
2018-04-17T00:54:03.568Z,1015.22
2018-04-17T00:55:03.475Z,1015.23
2018-04-17T00:56:03.372Z,1015.25
2018-04-17T00:57:03.269Z,1015.27
2018-04-17T00:58:03.178Z,1015.25
2018-04-17T00:59:03.075Z,1015.27
2018-04-17T01:00:02.972Z,1015.27
2018-04-17T01:01:02.880Z,1015.29
2018-04-17T01:02:02.777Z,1015.27
2018-04-17T01:03:02.674Z,1015.28
2018-04-17T01:04:02.577Z,1015.25
2018-04-17T01:05:02.481Z,1015.29
2018-04-17T01:06:02.385Z,1015.21
2018-04-17T01:07:02.286Z,1015.26
2018-04-17T01:08:02.183Z,1015.26
2018-04-17T01:09:02.079Z,1015.25
2018-04-17T01:10:01.979Z,1015.26
2018-04-17T01:11:01.885Z,1015.30
2018-04-17T01:12:01.785Z,1015.36
2018-04-17T01:13:01.930Z,1015.34
2018-04-17T01:14:01.592Z,1015.37
2018-04-17T01:15:01.525Z,1015.38
2018-04-17T01:16:01.382Z,1015.38
2018-04-17T01:17:01.292Z,1015.38
2018-04-17T01:18:01.235Z,1015.36
2018-04-17T01:19:01.084Z,1015.35
2018-04-17T01:20:00.993Z,1015.42
2018-04-17T01:21:00.889Z,1015.43
2018-04-17T01:22:00.786Z,1015.44
2018-04-17T01:23:00.683Z,1015.44
2018-04-17T01:24:00.592Z,1015.45
2018-04-17T01:25:00.489Z,1015.49
2018-04-17T01:26:00.386Z,1015.50
2018-04-17T01:27:00.296Z,1015.47
2018-04-17T01:28:00.193Z,1015.48
2018-04-17T01:29:00.089Z,1015.44
2018-04-17T01:29:59.985Z,1015.51
2018-04-17T01:30:59.894Z,1015.50
2018-04-17T01:31:59.790Z,1015.55
2018-04-17T01:32:59.688Z,1015.53
2018-04-17T01:33:59.596Z,1015.57
2018-04-17T01:34:59.492Z,1015.58
2018-04-17T01:35:59.389Z,1015.57
2018-04-17T01:36:59.286Z,1015.58
2018-04-17T01:37:59.196Z,1015.58
2018-04-17T01:38:59.092Z,1015.59
2018-04-17T01:39:58.989Z,1015.64
2018-04-17T01:40:58.886Z,1015.62
2018-04-17T01:41:58.794Z,1015.63
2018-04-17T01:42:58.990Z,1015.61
2018-04-17T01:43:58.587Z,1015.62
2018-04-17T01:44:58.498Z,1015.57
2018-04-17T01:45:58.394Z,1015.55
2018-04-17T01:46:58.287Z,1015.53
2018-04-17T01:47:58.187Z,1015.51
2018-04-17T01:48:58.096Z,1015.56
2018-04-17T01:49:57.992Z,1015.59
2018-04-17T01:50:57.892Z,1015.61
2018-04-17T01:51:57.786Z,1015.62
2018-04-17T01:52:57.700Z,1015.59
2018-04-17T01:53:57.594Z,1015.65
2018-04-17T01:54:57.493Z,1015.62
2018-04-17T01:55:57.387Z,1015.60
2018-04-17T01:56:57.296Z,1015.66
2018-04-17T01:57:57.194Z,1015.66
2018-04-17T01:58:57.093Z,1015.69
2018-04-17T01:59:56.988Z,1015.72
2018-04-17T02:00:56.898Z,1015.71
2018-04-17T02:01:56.795Z,1015.69
2018-04-17T02:02:56.692Z,1015.73
2018-04-17T02:03:56.587Z,1015.69
2018-04-17T02:04:56.496Z,1015.70
2018-04-17T02:05:56.392Z,1015.71
2018-04-17T02:06:56.290Z,1015.68
2018-04-17T02:07:56.187Z,1015.68
2018-04-17T02:08:56.096Z,1015.75
2018-04-17T02:09:55.995Z,1015.71
2018-04-17T02:10:55.889Z,1015.71
2018-04-17T02:11:55.786Z,1015.72
2018-04-17T02:12:55.696Z,1015.75
2018-04-17T02:13:55.594Z,1015.75
2018-04-17T02:14:55.487Z,1015.78
2018-04-17T02:15:55.385Z,1015.76
2018-04-17T02:16:55.296Z,1015.78
2018-04-17T02:17:55.191Z,1015.84
2018-04-17T02:18:55.088Z,1015.83
2018-04-17T02:19:54.983Z,1015.89
2018-04-17T02:20:54.892Z,1015.94
2018-04-17T02:21:54.789Z,1016.00
2018-04-17T02:22:54.986Z,1015.97
2018-04-17T02:23:54.584Z,1016.01
2018-04-17T02:24:54.493Z,1016.04
2018-04-17T02:25:54.389Z,1016.03
2018-04-17T02:26:54.287Z,1016.00
2018-04-17T02:27:54.182Z,1016.01
2018-04-17T02:28:54.091Z,1016.02
2018-04-17T02:29:53.988Z,1016.04
2018-04-17T02:30:53.885Z,1016.01
2018-04-17T02:31:53.781Z,1016.00
2018-04-17T02:32:53.680Z,1016.06
2018-04-17T02:33:53.646Z,1015.98
2018-04-17T02:34:53.485Z,1015.99
2018-04-17T02:35:53.384Z,1016.04
2018-04-17T02:36:53.279Z,1016.00
2018-04-17T02:37:53.187Z,1016.03
2018-04-17T02:38:53.084Z,1016.00
2018-04-17T02:39:52.981Z,1016.03
2018-04-17T02:40:52.877Z,1016.01
2018-04-17T02:41:52.788Z,1016.07
2018-04-17T02:42:52.688Z,1016.08
2018-04-17T02:43:52.583Z,1016.07
2018-04-17T02:44:52.477Z,1016.10
2018-04-17T02:45:52.374Z,1016.01
2018-04-17T02:46:52.281Z,1016.05
2018-04-17T02:47:52.183Z,1016.06
2018-04-17T02:48:52.075Z,1016.09
2018-04-17T02:49:51.971Z,1016.07
2018-04-17T02:50:51.882Z,1016.04
2018-04-17T02:51:51.780Z,1016.04
2018-04-17T02:52:51.675Z,1016.05
2018-04-17T02:53:51.572Z,1016.06
2018-04-17T02:54:51.468Z,1016.11
2018-04-17T02:55:51.377Z,1016.09
2018-04-17T02:56:51.273Z,1016.09
2018-04-17T02:57:51.169Z,1016.11
2018-04-17T02:58:51.073Z,1016.10
2018-04-17T02:59:50.964Z,1016.11
2018-04-17T03:00:50.872Z,1016.18
2018-04-17T03:01:50.769Z,1016.16
2018-04-17T03:02:50.965Z,1016.13
2018-04-17T03:03:50.562Z,1016.15
2018-04-17T03:04:50.470Z,1016.16
2018-04-17T03:05:50.366Z,1016.15
2018-04-17T03:06:50.263Z,1016.16
2018-04-17T03:07:50.161Z,1016.15
2018-04-17T03:08:50.057Z,1016.16
2018-04-17T03:09:49.967Z,1016.18
2018-04-17T03:10:49.863Z,1016.17
2018-04-17T03:11:49.760Z,1016.18
2018-04-17T03:12:49.657Z,1016.22
2018-04-17T03:13:49.553Z,1016.21
2018-04-17T03:14:49.461Z,1016.19
2018-04-17T03:15:49.358Z,1016.23
2018-04-17T03:16:49.255Z,1016.23
2018-04-17T03:17:49.155Z,1016.27
2018-04-17T03:18:49.052Z,1016.30
2018-04-17T03:19:48.961Z,1016.27
2018-04-17T03:20:48.848Z,1016.25
2018-04-17T03:21:48.752Z,1016.26
2018-04-17T03:22:48.649Z,1016.33
2018-04-17T03:23:48.548Z,1016.35
2018-04-17T03:24:48.454Z,1016.37
2018-04-17T03:25:48.350Z,1016.36
2018-04-17T03:26:48.247Z,1016.43
2018-04-17T03:27:48.144Z,1016.44
2018-04-17T03:28:48.042Z,1016.39
2018-04-17T03:29:47.950Z,1016.43
2018-04-17T03:30:47.848Z,1016.44
2018-04-17T03:31:47.746Z,1016.47
2018-04-17T03:32:47.891Z,1016.46
2018-04-17T03:33:47.537Z,1016.47
2018-04-17T03:34:47.445Z,1016.46
2018-04-17T03:35:47.342Z,1016.49
2018-04-17T03:36:47.238Z,1016.52
2018-04-17T03:37:47.135Z,1016.55
2018-04-17T03:38:47.032Z,1016.58
2018-04-17T03:39:46.930Z,1016.58
2018-04-17T03:40:46.837Z,1016.58
2018-04-17T03:41:46.735Z,1016.51
2018-04-17T03:42:46.632Z,1016.50
2018-04-17T03:43:46.528Z,1016.51
2018-04-17T03:44:46.425Z,1016.48
2018-04-17T03:45:46.333Z,1016.50
2018-04-17T03:46:46.229Z,1016.52
2018-04-17T03:47:46.126Z,1016.55
2018-04-17T03:48:46.023Z,1016.55
2018-04-17T03:49:45.920Z,1016.56
2018-04-17T03:50:45.829Z,1016.59
2018-04-17T03:51:45.726Z,1016.63
2018-04-17T03:52:45.622Z,1016.63
2018-04-17T03:53:45.520Z,1016.65
2018-04-17T03:54:45.416Z,1016.68
2018-04-17T03:55:45.313Z,1016.66
2018-04-17T03:56:45.220Z,1016.63
2018-04-17T03:57:45.118Z,1016.66
2018-04-17T03:58:45.015Z,1016.64
2018-04-17T03:59:44.913Z,1016.64
2018-04-17T04:00:44.809Z,1016.64
2018-04-17T04:01:44.718Z,1016.68
2018-04-17T04:02:44.618Z,1016.71
2018-04-17T04:03:44.511Z,1016.70
2018-04-17T04:04:44.407Z,1016.67
2018-04-17T04:05:44.303Z,1016.71
2018-04-17T04:06:44.212Z,1016.70
2018-04-17T04:07:44.110Z,1016.68
2018-04-17T04:08:44.006Z,1016.73
2018-04-17T04:09:43.902Z,1016.68
2018-04-17T04:10:43.799Z,1016.72
2018-04-17T04:11:43.696Z,1016.73
2018-04-17T04:12:43.609Z,1016.73
2018-04-17T04:13:43.505Z,1016.76
2018-04-17T04:14:43.400Z,1016.75
2018-04-17T04:15:43.295Z,1016.77
2018-04-17T04:16:43.193Z,1016.78
2018-04-17T04:17:43.091Z,1016.79
2018-04-17T04:18:42.998Z,1016.87
2018-04-17T04:19:42.894Z,1016.87
2018-04-17T04:20:42.791Z,1016.88
2018-04-17T04:21:42.687Z,1016.90
2018-04-17T04:22:42.584Z,1016.91
2018-04-17T04:23:42.493Z,1016.97
2018-04-17T04:24:42.391Z,1016.96
2018-04-17T04:25:42.287Z,1016.96
2018-04-17T04:26:42.184Z,1016.92
2018-04-17T04:27:42.081Z,1016.94
2018-04-17T04:28:41.979Z,1016.95
2018-04-17T04:29:41.886Z,1016.94
2018-04-17T04:30:41.782Z,1016.99
2018-04-17T04:31:41.679Z,1017.00
2018-04-17T04:32:41.578Z,1017.03
2018-04-17T04:33:41.486Z,1017.02
2018-04-17T04:34:41.384Z,1017.00
2018-04-17T04:35:41.279Z,1017.09
2018-04-17T04:36:41.202Z,1017.07
2018-04-17T04:37:41.074Z,1017.10
2018-04-17T04:38:40.969Z,1017.12
2018-04-17T04:39:40.877Z,1017.13
2018-04-17T04:40:40.775Z,1017.13
2018-04-17T04:41:40.673Z,1017.17
2018-04-17T04:42:40.865Z,1017.19
2018-04-17T04:43:40.468Z,1017.20
2018-04-17T04:44:40.374Z,1017.22
2018-04-17T04:45:40.272Z,1017.21
2018-04-17T04:46:40.168Z,1017.20
2018-04-17T04:47:40.064Z,1017.21
2018-04-17T04:48:39.961Z,1017.25
2018-04-17T04:49:39.869Z,1017.27
2018-04-17T04:50:39.766Z,1017.31
2018-04-17T04:51:39.663Z,1017.33
2018-04-17T04:52:39.585Z,1017.37
2018-04-17T04:53:39.471Z,1017.36
2018-04-17T04:54:39.367Z,1017.36
2018-04-17T04:55:39.263Z,1017.35
2018-04-17T04:56:39.161Z,1017.44
2018-04-17T04:57:39.071Z,1017.43
2018-04-17T04:58:38.965Z,1017.46
2018-04-17T04:59:38.864Z,1017.48
2018-04-17T05:00:38.759Z,1017.55
2018-04-17T05:01:38.673Z,1017.58
2018-04-17T05:02:38.814Z,1017.60
2018-04-17T05:03:38.462Z,1017.62
2018-04-17T05:04:38.358Z,1017.59
2018-04-17T05:05:38.267Z,1017.66
2018-04-17T05:06:38.163Z,1017.65
2018-04-17T05:07:38.060Z,1017.66
2018-04-17T05:08:37.959Z,1017.67
2018-04-17T05:09:37.867Z,1017.72
2018-04-17T05:10:37.763Z,1017.75
2018-04-17T05:11:37.663Z,1017.80
2018-04-17T05:12:37.581Z,1017.84
2018-04-17T05:13:37.465Z,1017.85
2018-04-17T05:14:37.363Z,1017.90
2018-04-17T05:15:37.272Z,1017.89
2018-04-17T05:16:37.171Z,1017.89
2018-04-17T05:17:37.066Z,1017.87
2018-04-17T05:18:36.979Z,1017.93
2018-04-17T05:19:36.871Z,1017.92
2018-04-17T05:20:36.770Z,1017.93
2018-04-17T05:21:36.681Z,1017.95
2018-04-17T05:22:36.825Z,1017.99
2018-04-17T05:23:36.471Z,1017.99
2018-04-17T05:24:36.380Z,1018.00
2018-04-17T05:25:36.276Z,1018.05
2018-04-17T05:26:36.187Z,1018.11
2018-04-17T05:27:36.083Z,1018.12
2018-04-17T05:28:35.981Z,1018.15
2018-04-17T05:29:35.888Z,1018.18
2018-04-17T05:30:35.787Z,1018.25
2018-04-17T05:31:35.683Z,1018.26
2018-04-17T05:32:35.593Z,1018.25
2018-04-17T05:33:35.488Z,1018.33
2018-04-17T05:34:35.404Z,1018.32
2018-04-17T05:35:35.294Z,1018.36
2018-04-17T05:36:35.206Z,1018.37
2018-04-17T05:37:35.100Z,1018.39
2018-04-17T05:38:35.008Z,1018.37
2018-04-17T05:39:34.905Z,1018.43
2018-04-17T05:40:34.801Z,1018.43
2018-04-17T05:41:34.712Z,1018.41
2018-04-17T05:42:34.859Z,1018.47
2018-04-17T05:43:34.517Z,1018.49
2018-04-17T05:44:34.414Z,1018.54
2018-04-17T05:45:34.324Z,1018.58
2018-04-17T05:46:34.221Z,1018.61
2018-04-17T05:47:34.142Z,1018.63
2018-04-17T05:48:34.025Z,1018.68
2018-04-17T05:49:33.935Z,1018.69
2018-04-17T05:50:33.832Z,1018.70
2018-04-17T05:51:33.740Z,1018.69
2018-04-17T05:52:33.645Z,1018.73
2018-04-17T05:53:33.547Z,1018.74
2018-04-17T05:54:33.446Z,1018.74
2018-04-17T05:55:33.368Z,1018.73
2018-04-17T05:56:33.268Z,1018.71
2018-04-17T05:57:33.159Z,1018.74
2018-04-17T05:58:33.056Z,1018.75
2018-04-17T05:59:32.964Z,1018.76
2018-04-17T06:00:32.861Z,1018.80
2018-04-17T06:01:32.771Z,1018.78
2018-04-17T06:02:32.668Z,1018.86
2018-04-17T06:03:32.576Z,1018.84
2018-04-17T06:04:32.473Z,1018.86
2018-04-17T06:05:32.383Z,1018.87
2018-04-17T06:06:32.294Z,1018.89
2018-04-17T06:07:32.189Z,1018.90
2018-04-17T06:08:32.098Z,1018.92
2018-04-17T06:09:31.994Z,1018.92
2018-04-17T06:10:31.902Z,1018.99
2018-04-17T06:11:31.799Z,1019.05
2018-04-17T06:12:31.713Z,1019.03
2018-04-17T06:13:31.617Z,1019.06
2018-04-17T06:14:31.514Z,1019.09
2018-04-17T06:15:31.410Z,1019.13
2018-04-17T06:16:31.322Z,1019.11
2018-04-17T06:17:31.233Z,1019.07
2018-04-17T06:18:31.126Z,1019.10
2018-04-17T06:19:31.036Z,1019.11
2018-04-17T06:20:30.933Z,1019.08
2018-04-17T06:21:30.841Z,1019.14
2018-04-17T06:22:30.750Z,1019.16
2018-04-17T06:23:30.650Z,1019.20
2018-04-17T06:24:30.544Z,1019.24
2018-04-17T06:25:30.453Z,1019.20
2018-04-17T06:26:30.366Z,1019.23
2018-04-17T06:27:30.264Z,1019.27
2018-04-17T06:28:30.167Z,1019.29
2018-04-17T06:29:30.076Z,1019.31
2018-04-17T06:30:29.974Z,1019.32
2018-04-17T06:31:29.882Z,1019.32
2018-04-17T06:32:29.779Z,1019.38
2018-04-17T06:33:29.689Z,1019.41
2018-04-17T06:34:29.588Z,1019.45
2018-04-17T06:35:29.494Z,1019.46
2018-04-17T06:36:29.393Z,1019.45
2018-04-17T06:37:29.301Z,1019.52
2018-04-17T06:38:29.209Z,1019.51
2018-04-17T06:39:29.106Z,1019.55
2018-04-17T06:40:29.016Z,1019.56
2018-04-17T06:41:28.924Z,1019.49
2018-04-17T06:42:28.820Z,1019.55
2018-04-17T06:43:28.731Z,1019.59
2018-04-17T06:44:28.653Z,1019.57
2018-04-17T06:45:28.536Z,1019.58
2018-04-17T06:46:28.447Z,1019.66
2018-04-17T06:47:28.376Z,1019.62
2018-04-17T06:48:28.251Z,1019.70
2018-04-17T06:49:28.165Z,1019.76
2018-04-17T06:50:28.069Z,1019.75
2018-04-17T06:51:27.966Z,1019.76
2018-04-17T06:52:27.876Z,1019.79
2018-04-17T06:53:27.785Z,1019.84
2018-04-17T06:54:27.682Z,1019.85
2018-04-17T06:55:27.594Z,1019.86
2018-04-17T06:56:27.499Z,1019.83
2018-04-17T06:57:27.414Z,1019.83
2018-04-17T06:58:27.306Z,1019.84
2018-04-17T06:59:27.214Z,1019.86
2018-04-17T07:00:27.124Z,1019.86
2018-04-17T07:01:27.033Z,1019.86
2018-04-17T07:02:26.931Z,1019.88
2018-04-17T07:03:26.839Z,1019.90
2018-04-17T07:04:26.753Z,1019.91
2018-04-17T07:05:26.658Z,1019.90
2018-04-17T07:06:26.574Z,1019.88
2018-04-17T07:07:26.463Z,1019.94
2018-04-17T07:08:26.374Z,1019.92
2018-04-17T07:09:26.285Z,1019.94
2018-04-17T07:10:26.192Z,1019.93
2018-04-17T07:11:26.089Z,1019.92
2018-04-17T07:12:25.996Z,1019.95
2018-04-17T07:13:25.908Z,1019.90
2018-04-17T07:14:25.815Z,1019.98
2018-04-17T07:15:25.725Z,1019.91
2018-04-17T07:16:25.634Z,1019.98
2018-04-17T07:17:25.793Z,1019.96
2018-04-17T07:18:25.441Z,1020.02
2018-04-17T07:19:25.361Z,1020.03
2018-04-17T07:20:25.259Z,1020.03
2018-04-17T07:21:25.167Z,1020.02
2018-04-17T07:22:25.077Z,1020.02
2018-04-17T07:23:24.992Z,1020.05
2018-04-17T07:24:24.883Z,1020.10
2018-04-17T07:25:24.793Z,1020.11
2018-04-17T07:26:24.704Z,1020.13
2018-04-17T07:27:24.612Z,1020.10
2018-04-17T07:28:24.519Z,1020.16
2018-04-17T07:29:24.458Z,1020.23
2018-04-17T07:30:24.326Z,1020.21
2018-04-17T07:31:24.234Z,1020.23
2018-04-17T07:32:24.144Z,1020.26
2018-04-17T07:33:24.052Z,1020.30
2018-04-17T07:34:23.950Z,1020.30
2018-04-17T07:35:23.858Z,1020.27
2018-04-17T07:36:23.767Z,1020.34
2018-04-17T07:37:23.677Z,1020.35
2018-04-17T07:38:23.575Z,1020.34
2018-04-17T07:39:23.483Z,1020.31
2018-04-17T07:40:23.440Z,1020.27
2018-04-17T07:41:23.301Z,1020.27
2018-04-17T07:42:23.200Z,1020.26
2018-04-17T07:43:23.108Z,1020.26
2018-04-17T07:44:23.015Z,1020.24
2018-04-17T07:45:22.912Z,1020.22
2018-04-17T07:46:22.823Z,1020.28
2018-04-17T07:47:22.746Z,1020.28
2018-04-17T07:48:22.628Z,1020.27
2018-04-17T07:49:22.538Z,1020.28
2018-04-17T07:50:22.446Z,1020.28
2018-04-17T07:51:22.344Z,1020.30
2018-04-17T07:52:22.253Z,1020.30
2018-04-17T07:53:22.162Z,1020.32
2018-04-17T07:54:22.071Z,1020.30
2018-04-17T07:55:21.967Z,1020.30
2018-04-17T07:56:21.876Z,1020.34
2018-04-17T07:57:21.785Z,1020.32
2018-04-17T07:58:21.683Z,1020.33
2018-04-17T07:59:21.594Z,1020.35
2018-04-17T08:00:21.502Z,1020.37
2018-04-17T08:01:21.410Z,1020.33
2018-04-17T08:02:21.306Z,1020.38
2018-04-17T08:03:21.217Z,1020.40
2018-04-17T08:04:21.112Z,1020.40
2018-04-17T08:05:21.021Z,1020.39
2018-04-17T08:06:20.931Z,1020.40
2018-04-17T08:07:20.829Z,1020.43
2018-04-17T08:08:20.741Z,1020.42
2018-04-17T08:09:20.653Z,1020.46
2018-04-17T08:10:20.543Z,1020.45
2018-04-17T08:11:20.467Z,1020.43
2018-04-17T08:12:20.360Z,1020.42
2018-04-17T08:13:20.257Z,1020.48
2018-04-17T08:14:20.166Z,1020.49
2018-04-17T08:15:20.065Z,1020.47
2018-04-17T08:16:19.972Z,1020.51
2018-04-17T08:17:19.883Z,1020.48
2018-04-17T08:18:19.781Z,1020.50
2018-04-17T08:19:19.688Z,1020.49
2018-04-17T08:20:19.596Z,1020.48
2018-04-17T08:21:19.494Z,1020.50
2018-04-17T08:22:19.402Z,1020.52
2018-04-17T08:23:19.311Z,1020.53
2018-04-17T08:24:19.207Z,1020.58
2018-04-17T08:25:19.117Z,1020.55
2018-04-17T08:26:19.031Z,1020.63
2018-04-17T08:27:18.935Z,1020.65
2018-04-17T08:28:18.834Z,1020.63
2018-04-17T08:29:18.730Z,1020.62
2018-04-17T08:30:18.638Z,1020.62
2018-04-17T08:31:18.549Z,1020.62
2018-04-17T08:32:18.445Z,1020.66
2018-04-17T08:33:18.353Z,1020.66
2018-04-17T08:34:18.264Z,1020.71
2018-04-17T08:35:18.164Z,1020.69
2018-04-17T08:36:18.067Z,1020.68
2018-04-17T08:37:17.978Z,1020.74
2018-04-17T08:38:17.877Z,1020.73
2018-04-17T08:39:17.785Z,1020.67
2018-04-17T08:40:17.693Z,1020.66
2018-04-17T08:41:17.589Z,1020.65
2018-04-17T08:42:17.749Z,1020.69
2018-04-17T08:43:17.395Z,1020.69
2018-04-17T08:44:17.306Z,1020.70
2018-04-17T08:45:17.213Z,1020.69
2018-04-17T08:46:17.111Z,1020.70
2018-04-17T08:47:17.020Z,1020.73
2018-04-17T08:48:16.930Z,1020.68
2018-04-17T08:49:16.826Z,1020.72
2018-04-17T08:50:16.735Z,1020.72
2018-04-17T08:51:16.643Z,1020.73
2018-04-17T08:52:16.540Z,1020.74
2018-04-17T08:53:16.449Z,1020.73
2018-04-17T08:54:16.358Z,1020.74
2018-04-17T08:55:16.255Z,1020.77
2018-04-17T08:56:16.165Z,1020.77
2018-04-17T08:57:16.073Z,1020.72
2018-04-17T08:58:15.970Z,1020.71
2018-04-17T08:59:15.880Z,1020.74
2018-04-17T09:00:15.790Z,1020.77
2018-04-17T09:01:15.685Z,1020.74
2018-04-17T09:02:15.596Z,1020.75
2018-04-17T09:03:15.503Z,1020.79
2018-04-17T09:04:15.400Z,1020.75
2018-04-17T09:05:15.369Z,1020.75
2018-04-17T09:06:15.234Z,1020.76
2018-04-17T09:07:15.115Z,1020.78
2018-04-17T09:08:15.026Z,1020.78
2018-04-17T09:09:14.923Z,1020.80
2018-04-17T09:10:14.830Z,1020.79
2018-04-17T09:11:14.740Z,1020.81
2018-04-17T09:12:14.639Z,1020.75
2018-04-17T09:13:14.545Z,1020.75
2018-04-17T09:14:14.455Z,1020.74
2018-04-17T09:15:14.352Z,1020.75
2018-04-17T09:16:14.264Z,1020.77
2018-04-17T09:17:14.170Z,1020.79
2018-04-17T09:18:14.078Z,1020.82
2018-04-17T09:19:13.977Z,1020.85
2018-04-17T09:20:13.885Z,1020.83
2018-04-17T09:21:13.782Z,1020.78
2018-04-17T09:22:13.690Z,1020.80
2018-04-17T09:23:13.600Z,1020.80
2018-04-17T09:24:13.497Z,1020.79
2018-04-17T09:25:13.405Z,1020.76
2018-04-17T09:26:13.315Z,1020.82
2018-04-17T09:27:13.213Z,1020.87
2018-04-17T09:28:13.120Z,1020.87
2018-04-17T09:29:13.088Z,1020.87
2018-04-17T09:30:12.940Z,1020.99
2018-04-17T09:31:12.836Z,1020.95
2018-04-17T09:32:12.746Z,1020.92
2018-04-17T09:33:12.703Z,1020.98
2018-04-17T09:34:12.550Z,1021.07
2018-04-17T09:35:12.462Z,1021.16
2018-04-17T09:36:12.377Z,1021.20
2018-04-17T09:37:12.280Z,1021.27
2018-04-17T09:38:12.176Z,1021.20
2018-04-17T09:39:12.085Z,1021.22
2018-04-17T09:40:11.981Z,1021.27
2018-04-17T09:41:11.894Z,1021.26
2018-04-17T09:42:11.799Z,1021.26
2018-04-17T09:43:11.709Z,1021.26
2018-04-17T09:44:11.618Z,1021.33
2018-04-17T09:45:11.527Z,1021.24
2018-04-17T09:46:11.436Z,1021.32
2018-04-17T09:47:11.346Z,1021.25
2018-04-17T09:48:11.255Z,1021.24
2018-04-17T09:49:11.165Z,1021.28
2018-04-17T09:50:11.082Z,1021.27
2018-04-17T09:51:10.983Z,1021.24
2018-04-17T09:52:10.892Z,1021.24
2018-04-17T09:53:10.815Z,1021.23
2018-04-17T09:54:10.723Z,1021.27
2018-04-17T09:55:10.631Z,1021.24
2018-04-17T09:56:10.543Z,1021.28
2018-04-17T09:57:10.464Z,1021.27
2018-04-17T09:58:10.371Z,1021.33
2018-04-17T09:59:10.281Z,1021.35
2018-04-17T10:00:10.207Z,1021.31
2018-04-17T10:01:10.112Z,1021.31
2018-04-17T10:02:10.021Z,1021.28
2018-04-17T10:03:09.943Z,1021.33
2018-04-17T10:04:09.851Z,1021.25
2018-04-17T10:05:09.774Z,1021.28
2018-04-17T10:06:09.682Z,1021.27
2018-04-17T10:07:09.605Z,1021.19
2018-04-17T10:08:09.516Z,1021.21
2018-04-17T10:09:09.450Z,1021.21
2018-04-17T10:10:09.345Z,1021.19
2018-04-17T10:11:09.254Z,1021.20
2018-04-17T10:12:09.175Z,1021.19
2018-04-17T10:13:09.097Z,1021.20
2018-04-17T10:14:09.012Z,1021.21
2018-04-17T10:15:08.928Z,1021.21
2018-04-17T10:16:08.836Z,1021.22
2018-04-17T10:17:08.779Z,1021.15
2018-04-17T10:18:08.669Z,1021.18
2018-04-17T10:19:08.591Z,1021.14
2018-04-17T10:20:08.499Z,1021.18
2018-04-17T10:21:08.419Z,1021.14
2018-04-17T10:22:08.341Z,1021.12
2018-04-17T10:23:08.252Z,1021.16
2018-04-17T10:24:08.173Z,1021.21
2018-04-17T10:25:08.094Z,1021.20
2018-04-17T10:26:08.003Z,1021.09
2018-04-17T10:27:07.913Z,1021.09
2018-04-17T10:28:07.835Z,1021.06
2018-04-17T10:29:07.744Z,1021.09
2018-04-17T10:30:07.667Z,1021.02
2018-04-17T10:31:07.575Z,1021.11
2018-04-17T10:32:07.497Z,1021.07
2018-04-17T10:33:07.405Z,1021.00
2018-04-17T10:34:07.314Z,1020.99
2018-04-17T10:35:07.237Z,1020.98
2018-04-17T10:36:07.145Z,1021.00
2018-04-17T10:37:07.067Z,1020.95
2018-04-17T10:38:06.978Z,1020.99
2018-04-17T10:39:06.885Z,1020.95
2018-04-17T10:40:06.795Z,1020.98
2018-04-17T10:41:06.717Z,1020.89
2018-04-17T10:42:06.625Z,1020.92
2018-04-17T10:43:06.535Z,1020.91
2018-04-17T10:44:06.445Z,1020.90
2018-04-17T10:45:06.366Z,1020.93
2018-04-17T10:46:06.281Z,1020.83
2018-04-17T10:47:06.184Z,1020.83
2018-04-17T10:48:06.094Z,1020.80
2018-04-17T10:49:06.003Z,1020.83
2018-04-17T10:50:05.924Z,1020.87
2018-04-17T10:51:05.834Z,1020.88
2018-04-17T10:52:05.756Z,1020.86
2018-04-17T10:53:05.652Z,1020.84
2018-04-17T10:54:05.560Z,1020.83
2018-04-17T10:55:05.471Z,1020.79
2018-04-17T10:56:05.381Z,1020.78
2018-04-17T10:57:05.293Z,1020.79
2018-04-17T10:58:05.197Z,1020.82
2018-04-17T10:59:05.107Z,1020.89
2018-04-17T11:00:05.016Z,1020.93
2018-04-17T11:01:04.925Z,1020.94
2018-04-17T11:02:04.834Z,1020.92
2018-04-17T11:03:04.747Z,1020.93
2018-04-17T11:04:04.681Z,1020.87
2018-04-17T11:05:04.561Z,1020.86
2018-04-17T11:06:04.470Z,1020.86
2018-04-17T11:07:04.380Z,1020.87
2018-04-17T11:08:04.302Z,1020.81
2018-04-17T11:09:04.199Z,1020.79
2018-04-17T11:10:04.111Z,1020.84
2018-04-17T11:11:04.022Z,1020.82
2018-04-17T11:12:03.925Z,1020.82
2018-04-17T11:13:03.823Z,1020.79
2018-04-17T11:14:03.732Z,1020.84
2018-04-17T11:15:03.641Z,1020.86
2018-04-17T11:16:03.551Z,1020.82
2018-04-17T11:17:03.460Z,1020.83
2018-04-17T11:18:03.369Z,1020.82
2018-04-17T11:19:03.277Z,1020.79
2018-04-17T11:20:03.188Z,1020.82
2018-04-17T11:21:03.085Z,1020.76
2018-04-17T11:22:02.992Z,1020.85
2018-04-17T11:23:02.902Z,1020.81
2018-04-17T11:24:02.811Z,1020.83
2018-04-17T11:25:02.721Z,1020.87
2018-04-17T11:26:02.629Z,1020.91
2018-04-17T11:27:02.527Z,1020.84
2018-04-17T11:28:02.436Z,1020.88
2018-04-17T11:29:02.392Z,1020.86
2018-04-17T11:30:02.255Z,1020.86
2018-04-17T11:31:02.162Z,1020.82
2018-04-17T11:32:02.072Z,1020.87
2018-04-17T11:33:01.982Z,1020.89
2018-04-17T11:34:01.878Z,1020.90
2018-04-17T11:35:01.789Z,1020.92
2018-04-17T11:36:01.691Z,1020.90
2018-04-17T11:37:01.606Z,1020.82
2018-04-17T11:38:01.516Z,1020.91
2018-04-17T11:39:01.412Z,1020.89
2018-04-17T11:40:01.322Z,1020.93
2018-04-17T11:41:01.232Z,1020.93
2018-04-17T11:42:01.139Z,1020.95
2018-04-17T11:43:01.079Z,1020.95
2018-04-17T11:44:00.946Z,1021.00
2018-04-17T11:45:00.855Z,1020.99
2018-04-17T11:46:00.762Z,1021.02
2018-04-17T11:47:00.672Z,1021.07
2018-04-17T11:48:00.584Z,1021.06
2018-04-17T11:49:00.491Z,1021.06
2018-04-17T11:50:00.400Z,1021.04
2018-04-17T11:51:00.296Z,1021.06
2018-04-17T11:52:00.207Z,1021.09
2018-04-17T11:53:00.120Z,1021.09
2018-04-17T11:54:00.025Z,1021.13
2018-04-17T11:54:59.934Z,1021.12
2018-04-17T11:55:59.832Z,1021.10
2018-04-17T11:56:59.740Z,1021.12
2018-04-17T11:57:59.647Z,1021.10
2018-04-17T11:58:59.558Z,1021.18
2018-04-17T11:59:59.466Z,1021.18
2018-04-17T12:00:59.376Z,1021.15
2018-04-17T12:01:59.285Z,1021.15
2018-04-17T12:02:59.183Z,1021.21
2018-04-17T12:03:59.093Z,1021.26